sensor_id;sensor_type;location;lat;lon;timestamp;pressure;altitude;pressure_sealevel;temperature;humidity
42415;BME280;28058;46.344;17.786;2023-03-11T00:02:12;118336.50;;;-144.97;100.00
42415;BME280;28058;46.344;17.786;2023-03-11T00:04:39;118336.50;;;-144.97;100.00
42415;BME280;28058;46.344;17.786;2023-03-11T00:07:06;118336.50;;;-144.97;100.00
42415;BME280;28058;46.344;17.786;2023-03-11T00:09:33;118336.50;;;-144.97;100.00
42415;BME280;28058;46.344;17.786;2023-03-11T00:12:00;118336.50;;;-144.97;100.00
42415;BME280;28058;46.344;17.786;2023-03-11T00:14:27;118336.50;;;-144.97;100.00
42415;BME280;28058;46.344;17.786;2023-03-11T00:16:54;118336.50;;;-144.97;100.00
42415;BME280;28058;46.344;17.786;2023-03-11T00:19:21;118336.50;;;-144.97;100.00
42415;BME280;28058;46.344;17.786;2023-03-11T00:21:47;118336.50;;;-144.97;100.00
42415;BME280;28058;46.344;17.786;2023-03-11T00:24:14;118336.50;;;-144.97;100.00
42415;BME280;28058;46.344;17.786;2023-03-11T00:26:41;118336.50;;;-144.97;100.00
42415;BME280;28058;46.344;17.786;2023-03-11T00:29:07;118336.50;;;-144.97;100.00
42415;BME280;28058;46.344;17.786;2023-03-11T00:31:34;118336.50;;;-144.97;100.00
42415;BME280;28058;46.344;17.786;2023-03-11T00:34:00;118336.50;;;-144.97;100.00
42415;BME280;28058;46.344;17.786;2023-03-11T00:36:28;118336.50;;;-144.97;100.00
42415;BME280;28058;46.344;17.786;2023-03-11T00:38:58;118336.50;;;-144.97;100.00
42415;BME280;28058;46.344;17.786;2023-03-11T00:41:25;118336.50;;;-144.97;100.00
42415;BME280;28058;46.344;17.786;2023-03-11T00:43:52;118336.50;;;-144.97;100.00
42415;BME280;28058;46.344;17.786;2023-03-11T00:46:19;118336.50;;;-144.97;100.00
42415;BME280;28058;46.344;17.786;2023-03-11T00:48:45;118336.50;;;-144.97;100.00
42415;BME280;28058;46.344;17.786;2023-03-11T00:51:13;118336.50;;;-144.97;100.00
42415;BME280;28058;46.344;17.786;2023-03-11T00:53:40;118336.50;;;-144.97;100.00
42415;BME280;28058;46.344;17.786;2023-03-11T00:56:08;118336.50;;;-144.97;100.00
42415;BME280;28058;46.344;17.786;2023-03-11T00:58:35;118336.50;;;-144.97;100.00
42415;BME280;28058;46.344;17.786;2023-03-11T01:01:35;118336.50;;;-144.97;100.00
42415;BME280;28058;46.344;17.786;2023-03-11T01:03:54;118336.50;;;-144.97;100.00
42415;BME280;28058;46.344;17.786;2023-03-11T01:06:21;118336.50;;;-144.97;100.00
42415;BME280;28058;46.344;17.786;2023-03-11T01:08:48;118336.50;;;-144.97;100.00
42415;BME280;28058;46.344;17.786;2023-03-11T01:11:15;118336.50;;;-144.97;100.00
42415;BME280;28058;46.344;17.786;2023-03-11T01:13:41;118336.50;;;-144.97;100.00
42415;BME280;28058;46.344;17.786;2023-03-11T01:16:08;118336.50;;;-144.97;100.00
42415;BME280;28058;46.344;17.786;2023-03-11T01:18:35;118336.50;;;-144.97;100.00
42415;BME280;28058;46.344;17.786;2023-03-11T01:21:02;118336.50;;;-144.97;100.00
42415;BME280;28058;46.344;17.786;2023-03-11T01:23:29;118336.50;;;-144.97;100.00
42415;BME280;28058;46.344;17.786;2023-03-11T01:25:57;118336.50;;;-144.97;100.00
42415;BME280;28058;46.344;17.786;2023-03-11T01:28:24;118336.50;;;-144.97;100.00
42415;BME280;28058;46.344;17.786;2023-03-11T01:30:51;118336.50;;;-144.97;100.00
42415;BME280;28058;46.344;17.786;2023-03-11T01:33:18;118336.50;;;-144.97;100.00
42415;BME280;28058;46.344;17.786;2023-03-11T01:35:46;118336.50;;;-144.97;100.00
42415;BME280;28058;46.344;17.786;2023-03-11T01:38:14;118336.50;;;-144.97;100.00
42415;BME280;28058;46.344;17.786;2023-03-11T01:40:44;118336.50;;;-144.97;100.00
42415;BME280;28058;46.344;17.786;2023-03-11T01:48:22;118336.50;;;-144.97;100.00
42415;BME280;28058;46.344;17.786;2023-03-11T01:50:49;118336.50;;;-144.97;100.00
42415;BME280;28058;46.344;17.786;2023-03-11T01:53:16;118336.50;;;-144.97;100.00
42415;BME280;28058;46.344;17.786;2023-03-11T01:55:45;118336.50;;;-144.97;100.00
42415;BME280;28058;46.344;17.786;2023-03-11T01:58:20;118336.50;;;-144.97;100.00
42415;BME280;28058;46.344;17.786;2023-03-11T02:00:48;118336.50;;;-144.97;100.00
42415;BME280;28058;46.344;17.786;2023-03-11T02:03:23;118336.50;;;-144.97;100.00
42415;BME280;28058;46.344;17.786;2023-03-11T02:05:51;118336.50;;;-144.97;100.00
42415;BME280;28058;46.344;17.786;2023-03-11T02:08:19;118336.50;;;-144.97;100.00
42415;BME280;28058;46.344;17.786;2023-03-11T02:10:46;118336.50;;;-144.97;100.00
42415;BME280;28058;46.344;17.786;2023-03-11T02:13:14;118336.50;;;-144.97;100.00
42415;BME280;28058;46.344;17.786;2023-03-11T02:15:40;118336.50;;;-144.97;100.00
42415;BME280;28058;46.344;17.786;2023-03-11T02:18:07;118336.50;;;-144.97;100.00
42415;BME280;28058;46.344;17.786;2023-03-11T02:20:39;118336.50;;;-144.97;100.00
42415;BME280;28058;46.344;17.786;2023-03-11T02:23:09;118336.50;;;-144.97;100.00
42415;BME280;28058;46.344;17.786;2023-03-11T02:28:09;118336.50;;;-144.97;100.00
42415;BME280;28058;46.344;17.786;2023-03-11T02:30:38;118336.50;;;-144.97;100.00
42415;BME280;28058;46.344;17.786;2023-03-11T02:33:06;118336.50;;;-144.97;100.00
42415;BME280;28058;46.344;17.786;2023-03-11T02:35:33;118336.50;;;-144.97;100.00
42415;BME280;28058;46.344;17.786;2023-03-11T02:38:00;118336.50;;;-144.97;100.00
42415;BME280;28058;46.344;17.786;2023-03-11T02:42:56;118336.50;;;-144.97;100.00
42415;BME280;28058;46.344;17.786;2023-03-11T02:45:24;118336.50;;;-144.97;100.00
42415;BME280;28058;46.344;17.786;2023-03-11T02:47:51;118336.50;;;-144.97;100.00
42415;BME280;28058;46.344;17.786;2023-03-11T02:50:20;118336.50;;;-144.97;100.00
42415;BME280;28058;46.344;17.786;2023-03-11T02:52:47;118336.50;;;-144.97;100.00
42415;BME280;28058;46.344;17.786;2023-03-11T02:55:14;118336.50;;;-144.97;100.00
42415;BME280;28058;46.344;17.786;2023-03-11T02:57:41;118336.50;;;-144.97;100.00
42415;BME280;28058;46.344;17.786;2023-03-11T03:00:09;118336.50;;;-144.97;100.00
42415;BME280;28058;46.344;17.786;2023-03-11T03:02:39;118336.50;;;-144.97;100.00
42415;BME280;28058;46.344;17.786;2023-03-11T03:05:06;118336.50;;;-144.97;100.00
42415;BME280;28058;46.344;17.786;2023-03-11T03:07:33;118336.50;;;-144.97;100.00
42415;BME280;28058;46.344;17.786;2023-03-11T03:10:00;118336.50;;;-144.97;100.00
42415;BME280;28058;46.344;17.786;2023-03-11T03:12:26;118336.50;;;-144.97;100.00
42415;BME280;28058;46.344;17.786;2023-03-11T03:14:53;118336.50;;;-144.97;100.00
42415;BME280;28058;46.344;17.786;2023-03-11T03:17:20;118336.50;;;-144.97;100.00
42415;BME280;28058;46.344;17.786;2023-03-11T03:19:47;118336.50;;;-144.97;100.00
42415;BME280;28058;46.344;17.786;2023-03-11T03:22:13;118336.50;;;-144.97;100.00
42415;BME280;28058;46.344;17.786;2023-03-11T03:24:40;118336.50;;;-144.97;100.00
42415;BME280;28058;46.344;17.786;2023-03-11T03:27:07;118336.50;;;-144.97;100.00
42415;BME280;28058;46.344;17.786;2023-03-11T03:29:33;118336.50;;;-144.97;100.00
42415;BME280;28058;46.344;17.786;2023-03-11T03:32:00;118336.50;;;-144.97;100.00
42415;BME280;28058;46.344;17.786;2023-03-11T03:34:27;118336.50;;;-144.97;100.00
42415;BME280;28058;46.344;17.786;2023-03-11T03:36:53;118336.50;;;-144.97;100.00
42415;BME280;28058;46.344;17.786;2023-03-11T03:39:20;118336.50;;;-144.97;100.00
42415;BME280;28058;46.344;17.786;2023-03-11T03:41:47;118336.50;;;-144.97;100.00
42415;BME280;28058;46.344;17.786;2023-03-11T03:44:13;118336.50;;;-144.97;100.00
42415;BME280;28058;46.344;17.786;2023-03-11T03:46:40;118336.50;;;-144.97;100.00
42415;BME280;28058;46.344;17.786;2023-03-11T03:49:06;118336.50;;;-144.97;100.00
42415;BME280;28058;46.344;17.786;2023-03-11T03:51:33;118336.50;;;-144.97;100.00
42415;BME280;28058;46.344;17.786;2023-03-11T03:54:00;118336.50;;;-144.97;100.00
42415;BME280;28058;46.344;17.786;2023-03-11T03:56:26;118336.50;;;-144.97;100.00
42415;BME280;28058;46.344;17.786;2023-03-11T03:58:53;118336.50;;;-144.97;100.00
42415;BME280;28058;46.344;17.786;2023-03-11T04:01:20;118336.50;;;-144.97;100.00
42415;BME280;28058;46.344;17.786;2023-03-11T04:03:46;118336.50;;;-144.97;100.00
42415;BME280;28058;46.344;17.786;2023-03-11T04:06:17;118336.50;;;-144.97;100.00
42415;BME280;28058;46.344;17.786;2023-03-11T04:08:44;118336.50;;;-144.97;100.00
42415;BME280;28058;46.344;17.786;2023-03-11T04:11:11;118336.50;;;-144.97;100.00
42415;BME280;28058;46.344;17.786;2023-03-11T04:13:38;118336.50;;;-144.97;100.00
42415;BME280;28058;46.344;17.786;2023-03-11T04:16:05;118336.50;;;-144.97;100.00
42415;BME280;28058;46.344;17.786;2023-03-11T04:18:33;118336.50;;;-144.97;100.00
42415;BME280;28058;46.344;17.786;2023-03-11T04:21:03;118336.50;;;-144.97;100.00
42415;BME280;28058;46.344;17.786;2023-03-11T04:23:30;118336.50;;;-144.97;100.00
42415;BME280;28058;46.344;17.786;2023-03-11T04:25:56;118336.50;;;-144.97;100.00
42415;BME280;28058;46.344;17.786;2023-03-11T04:28:23;118336.50;;;-144.97;100.00
42415;BME280;28058;46.344;17.786;2023-03-11T04:30:49;118336.50;;;-144.97;100.00
42415;BME280;28058;46.344;17.786;2023-03-11T04:33:16;118336.50;;;-144.97;100.00
42415;BME280;28058;46.344;17.786;2023-03-11T04:35:43;118336.50;;;-144.97;100.00
42415;BME280;28058;46.344;17.786;2023-03-11T04:38:10;118336.50;;;-144.97;100.00
42415;BME280;28058;46.344;17.786;2023-03-11T04:40:37;118336.50;;;-144.97;100.00
42415;BME280;28058;46.344;17.786;2023-03-11T04:43:04;118336.50;;;-144.97;100.00
42415;BME280;28058;46.344;17.786;2023-03-11T04:45:30;118336.50;;;-144.97;100.00
42415;BME280;28058;46.344;17.786;2023-03-11T04:47:57;118336.50;;;-144.97;100.00
42415;BME280;28058;46.344;17.786;2023-03-11T04:50:24;118336.50;;;-144.97;100.00
42415;BME280;28058;46.344;17.786;2023-03-11T04:52:50;118336.50;;;-144.97;100.00
42415;BME280;28058;46.344;17.786;2023-03-11T04:55:17;118336.50;;;-144.97;100.00
42415;BME280;28058;46.344;17.786;2023-03-11T04:57:44;118336.50;;;-144.97;100.00
42415;BME280;28058;46.344;17.786;2023-03-11T05:00:13;118336.50;;;-144.97;100.00
42415;BME280;28058;46.344;17.786;2023-03-11T05:02:41;118336.50;;;-144.97;100.00
42415;BME280;28058;46.344;17.786;2023-03-11T05:05:08;118336.50;;;-144.97;100.00
42415;BME280;28058;46.344;17.786;2023-03-11T05:07:35;118336.50;;;-144.97;100.00
42415;BME280;28058;46.344;17.786;2023-03-11T05:10:02;118336.50;;;-144.97;100.00
42415;BME280;28058;46.344;17.786;2023-03-11T05:12:29;118336.50;;;-144.97;100.00
42415;BME280;28058;46.344;17.786;2023-03-11T05:14:56;118336.50;;;-144.97;100.00
42415;BME280;28058;46.344;17.786;2023-03-11T05:17:22;118336.50;;;-144.97;100.00
42415;BME280;28058;46.344;17.786;2023-03-11T05:19:51;118336.50;;;-144.97;100.00
42415;BME280;28058;46.344;17.786;2023-03-11T05:22:19;118336.50;;;-144.97;100.00
42415;BME280;28058;46.344;17.786;2023-03-11T05:24:46;118336.50;;;-144.97;100.00
42415;BME280;28058;46.344;17.786;2023-03-11T05:27:13;118336.50;;;-144.97;100.00
42415;BME280;28058;46.344;17.786;2023-03-11T05:29:43;118336.50;;;-144.97;100.00
42415;BME280;28058;46.344;17.786;2023-03-11T05:32:11;118336.50;;;-144.97;100.00
42415;BME280;28058;46.344;17.786;2023-03-11T05:34:37;118336.50;;;-144.97;100.00
42415;BME280;28058;46.344;17.786;2023-03-11T05:37:04;118336.50;;;-144.97;100.00
42415;BME280;28058;46.344;17.786;2023-03-11T05:39:31;118336.50;;;-144.97;100.00
42415;BME280;28058;46.344;17.786;2023-03-11T05:41:58;118336.50;;;-144.97;100.00
42415;BME280;28058;46.344;17.786;2023-03-11T05:44:25;118336.50;;;-144.97;100.00
42415;BME280;28058;46.344;17.786;2023-03-11T05:46:51;118336.50;;;-144.97;100.00
42415;BME280;28058;46.344;17.786;2023-03-11T05:49:18;118336.50;;;-144.97;100.00
42415;BME280;28058;46.344;17.786;2023-03-11T05:51:47;118336.50;;;-144.97;100.00
42415;BME280;28058;46.344;17.786;2023-03-11T05:54:14;118336.50;;;-144.97;100.00
42415;BME280;28058;46.344;17.786;2023-03-11T05:56:41;118336.50;;;-144.97;100.00
42415;BME280;28058;46.344;17.786;2023-03-11T05:59:08;118336.50;;;-144.97;100.00
42415;BME280;28058;46.344;17.786;2023-03-11T06:01:34;118336.50;;;-144.97;100.00
42415;BME280;28058;46.344;17.786;2023-03-11T06:04:01;118336.50;;;-144.97;100.00
42415;BME280;28058;46.344;17.786;2023-03-11T06:06:28;118336.50;;;-144.97;100.00
42415;BME280;28058;46.344;17.786;2023-03-11T06:08:55;118336.50;;;-144.97;100.00
42415;BME280;28058;46.344;17.786;2023-03-11T06:11:22;118336.50;;;-144.97;100.00
42415;BME280;28058;46.344;17.786;2023-03-11T06:13:52;118336.50;;;-144.97;100.00
42415;BME280;28058;46.344;17.786;2023-03-11T06:16:22;118336.50;;;-144.97;100.00
42415;BME280;28058;46.344;17.786;2023-03-11T06:18:49;118336.50;;;-144.97;100.00
42415;BME280;28058;46.344;17.786;2023-03-11T06:21:17;118336.50;;;-144.97;100.00
42415;BME280;28058;46.344;17.786;2023-03-11T06:23:44;118336.50;;;-144.97;100.00
42415;BME280;28058;46.344;17.786;2023-03-11T06:26:13;118336.50;;;-144.97;100.00
42415;BME280;28058;46.344;17.786;2023-03-11T06:28:43;118336.50;;;-144.97;100.00
42415;BME280;28058;46.344;17.786;2023-03-11T06:31:11;118336.50;;;-144.97;100.00
42415;BME280;28058;46.344;17.786;2023-03-11T06:33:39;118336.50;;;-144.97;100.00
42415;BME280;28058;46.344;17.786;2023-03-11T06:36:06;118336.50;;;-144.97;100.00
42415;BME280;28058;46.344;17.786;2023-03-11T06:38:33;118336.50;;;-144.97;100.00
42415;BME280;28058;46.344;17.786;2023-03-11T06:41:03;118336.50;;;-144.97;100.00
42415;BME280;28058;46.344;17.786;2023-03-11T06:43:30;118336.50;;;-144.97;100.00
42415;BME280;28058;46.344;17.786;2023-03-11T06:45:57;118336.50;;;-144.97;100.00
42415;BME280;28058;46.344;17.786;2023-03-11T06:48:24;118336.50;;;-144.97;100.00
42415;BME280;28058;46.344;17.786;2023-03-11T06:53:21;118336.50;;;-144.97;100.00
42415;BME280;28058;46.344;17.786;2023-03-11T06:56:01;118336.50;;;-144.97;100.00
42415;BME280;28058;46.344;17.786;2023-03-11T06:58:28;118336.50;;;-144.97;100.00
42415;BME280;28058;46.344;17.786;2023-03-11T07:00:58;118336.50;;;-144.97;100.00
42415;BME280;28058;46.344;17.786;2023-03-11T07:03:25;118336.50;;;-144.97;100.00
42415;BME280;28058;46.344;17.786;2023-03-11T07:05:52;118336.50;;;-144.97;100.00
42415;BME280;28058;46.344;17.786;2023-03-11T07:08:19;118336.50;;;-144.97;100.00
42415;BME280;28058;46.344;17.786;2023-03-11T07:10:45;118336.50;;;-144.97;100.00
42415;BME280;28058;46.344;17.786;2023-03-11T07:13:13;118336.50;;;-144.97;100.00
42415;BME280;28058;46.344;17.786;2023-03-11T07:15:40;118336.50;;;-144.97;100.00
42415;BME280;28058;46.344;17.786;2023-03-11T07:18:07;118336.50;;;-144.97;100.00
42415;BME280;28058;46.344;17.786;2023-03-11T07:20:33;118336.50;;;-144.97;100.00
42415;BME280;28058;46.344;17.786;2023-03-11T07:23:00;118336.50;;;-144.97;100.00
42415;BME280;28058;46.344;17.786;2023-03-11T07:25:27;118336.50;;;-144.97;100.00
42415;BME280;28058;46.344;17.786;2023-03-11T07:27:53;118336.50;;;-144.97;100.00
42415;BME280;28058;46.344;17.786;2023-03-11T07:30:20;118336.50;;;-144.97;100.00
42415;BME280;28058;46.344;17.786;2023-03-11T07:32:47;118336.50;;;-144.97;100.00
42415;BME280;28058;46.344;17.786;2023-03-11T07:35:14;118336.50;;;-144.97;100.00
42415;BME280;28058;46.344;17.786;2023-03-11T07:37:41;118336.50;;;-144.97;100.00
42415;BME280;28058;46.344;17.786;2023-03-11T07:40:08;118336.50;;;-144.97;100.00
42415;BME280;28058;46.344;17.786;2023-03-11T07:42:35;118336.50;;;-144.97;100.00
42415;BME280;28058;46.344;17.786;2023-03-11T07:45:01;118336.50;;;-144.97;100.00
42415;BME280;28058;46.344;17.786;2023-03-11T07:47:28;118336.50;;;-144.97;100.00
42415;BME280;28058;46.344;17.786;2023-03-11T07:49:55;118336.50;;;-144.97;100.00
42415;BME280;28058;46.344;17.786;2023-03-11T07:52:22;118336.50;;;-144.97;100.00
42415;BME280;28058;46.344;17.786;2023-03-11T07:54:49;118336.50;;;-144.97;100.00
42415;BME280;28058;46.344;17.786;2023-03-11T07:57:16;118336.50;;;-144.97;100.00
42415;BME280;28058;46.344;17.786;2023-03-11T07:59:42;118336.50;;;-144.97;100.00
42415;BME280;28058;46.344;17.786;2023-03-11T08:02:09;118336.50;;;-144.97;100.00
42415;BME280;28058;46.344;17.786;2023-03-11T08:04:36;118336.50;;;-144.97;100.00
42415;BME280;28058;46.344;17.786;2023-03-11T08:07:03;118336.50;;;-144.97;100.00
42415;BME280;28058;46.344;17.786;2023-03-11T08:09:29;118336.50;;;-144.97;100.00
42415;BME280;28058;46.344;17.786;2023-03-11T08:11:56;118336.50;;;-144.97;100.00
42415;BME280;28058;46.344;17.786;2023-03-11T08:14:23;118336.50;;;-144.97;100.00
42415;BME280;28058;46.344;17.786;2023-03-11T08:16:49;118336.50;;;-144.97;100.00
42415;BME280;28058;46.344;17.786;2023-03-11T08:19:16;118336.50;;;-144.97;100.00
42415;BME280;28058;46.344;17.786;2023-03-11T08:21:43;118336.50;;;-144.97;100.00
42415;BME280;28058;46.344;17.786;2023-03-11T08:24:11;118336.50;;;-144.97;100.00
42415;BME280;28058;46.344;17.786;2023-03-11T08:26:38;118336.50;;;-144.97;100.00
42415;BME280;28058;46.344;17.786;2023-03-11T08:29:05;118336.50;;;-144.97;100.00
42415;BME280;28058;46.344;17.786;2023-03-11T08:31:32;118336.50;;;-144.97;100.00
42415;BME280;28058;46.344;17.786;2023-03-11T08:34:04;118336.50;;;-144.97;100.00
42415;BME280;28058;46.344;17.786;2023-03-11T08:36:32;118336.50;;;-144.97;100.00
42415;BME280;28058;46.344;17.786;2023-03-11T08:38:59;118336.50;;;-144.97;100.00
42415;BME280;28058;46.344;17.786;2023-03-11T08:41:26;118336.50;;;-144.97;100.00
42415;BME280;28058;46.344;17.786;2023-03-11T08:43:53;118336.50;;;-144.97;100.00
42415;BME280;28058;46.344;17.786;2023-03-11T08:46:23;118336.50;;;-144.97;100.00
42415;BME280;28058;46.344;17.786;2023-03-11T08:48:50;118336.50;;;-144.97;100.00
42415;BME280;28058;46.344;17.786;2023-03-11T08:51:17;118336.50;;;-144.97;100.00
42415;BME280;28058;46.344;17.786;2023-03-11T08:53:46;118336.50;;;-144.97;100.00
42415;BME280;28058;46.344;17.786;2023-03-11T08:56:12;118336.50;;;-144.97;97.57
42415;BME280;28058;46.344;17.786;2023-03-11T08:58:39;118336.50;;;-144.97;86.51
42415;BME280;28058;46.344;17.786;2023-03-11T09:01:06;118336.50;;;-144.97;95.70
42415;BME280;28058;46.344;17.786;2023-03-11T09:03:34;118336.50;;;-144.97;78.94
42415;BME280;28058;46.344;17.786;2023-03-11T09:06:02;118336.50;;;-144.97;73.10
42415;BME280;28058;46.344;17.786;2023-03-11T09:08:29;118336.50;;;-144.97;69.96
42415;BME280;28058;46.344;17.786;2023-03-11T09:10:56;118336.50;;;-144.97;69.46
42415;BME280;28058;46.344;17.786;2023-03-11T09:13:22;118336.50;;;-144.97;65.48
42415;BME280;28058;46.344;17.786;2023-03-11T09:15:49;118336.50;;;-144.97;66.63
42415;BME280;28058;46.344;17.786;2023-03-11T09:18:16;118336.50;;;-144.97;64.28
42415;BME280;28058;46.344;17.786;2023-03-11T09:20:43;118336.50;;;-144.97;58.79
42415;BME280;28058;46.344;17.786;2023-03-11T09:23:11;118336.50;;;-144.97;61.40
42415;BME280;28058;46.344;17.786;2023-03-11T09:25:38;118336.50;;;-144.97;60.61
42415;BME280;28058;46.344;17.786;2023-03-11T09:28:05;118336.50;;;-144.97;59.90
42415;BME280;28058;46.344;17.786;2023-03-11T09:30:31;118336.50;;;-144.97;58.75
42415;BME280;28058;46.344;17.786;2023-03-11T09:32:58;118336.50;;;-144.97;51.11
42415;BME280;28058;46.344;17.786;2023-03-11T09:35:25;118336.50;;;-144.97;58.31
42415;BME280;28058;46.344;17.786;2023-03-11T09:37:52;118336.50;;;-144.97;60.33
42415;BME280;28058;46.344;17.786;2023-03-11T09:40:19;118336.50;;;-144.97;56.30
42415;BME280;28058;46.344;17.786;2023-03-11T09:43:05;118336.50;;;-144.97;54.51
42415;BME280;28058;46.344;17.786;2023-03-11T09:45:35;118336.50;;;-144.97;45.68
42415;BME280;28058;46.344;17.786;2023-03-11T09:48:18;118336.50;;;-144.97;43.84
42415;BME280;28058;46.344;17.786;2023-03-11T09:55:51;118336.50;;;-144.97;46.46
42415;BME280;28058;46.344;17.786;2023-03-11T09:58:20;118336.50;;;-144.97;46.02
42415;BME280;28058;46.344;17.786;2023-03-11T10:00:49;118336.50;;;-144.97;44.71
42415;BME280;28058;46.344;17.786;2023-03-11T10:03:24;118336.50;;;-144.97;46.38
42415;BME280;28058;46.344;17.786;2023-03-11T10:05:52;118336.50;;;-144.97;43.65
42415;BME280;28058;46.344;17.786;2023-03-11T10:10:48;118336.50;;;-144.97;41.77
42415;BME280;28058;46.344;17.786;2023-03-11T10:13:25;118336.50;;;-144.97;40.31
42415;BME280;28058;46.344;17.786;2023-03-11T10:15:59;118336.50;;;-144.97;38.47
42415;BME280;28058;46.344;17.786;2023-03-11T10:23:55;118336.50;;;-144.97;38.57
42415;BME280;28058;46.344;17.786;2023-03-11T10:26:30;118336.50;;;-144.97;38.02
42415;BME280;28058;46.344;17.786;2023-03-11T10:34:08;118336.50;;;-144.97;36.78
42415;BME280;28058;46.344;17.786;2023-03-11T10:36:50;118336.50;;;-144.97;36.64
42415;BME280;28058;46.344;17.786;2023-03-11T10:39:19;118336.50;;;-144.97;36.61
42415;BME280;28058;46.344;17.786;2023-03-11T10:41:50;118336.50;;;-144.97;36.67
42415;BME280;28058;46.344;17.786;2023-03-11T10:44:24;118336.50;;;-144.97;37.96
42415;BME280;28058;46.344;17.786;2023-03-11T10:46:54;118336.50;;;-144.97;38.08
42415;BME280;28058;46.344;17.786;2023-03-11T10:49:20;118336.50;;;-144.97;36.56
42415;BME280;28058;46.344;17.786;2023-03-11T10:51:48;118336.50;;;-144.97;36.33
42415;BME280;28058;46.344;17.786;2023-03-11T10:54:23;118336.50;;;-144.97;37.31
42415;BME280;28058;46.344;17.786;2023-03-11T10:56:59;118336.50;;;-144.97;35.63
42415;BME280;28058;46.344;17.786;2023-03-11T10:59:28;118336.50;;;-144.97;37.25
42415;BME280;28058;46.344;17.786;2023-03-11T11:01:56;118336.50;;;-144.97;35.21
42415;BME280;28058;46.344;17.786;2023-03-11T11:04:41;118336.50;;;-144.97;36.91
42415;BME280;28058;46.344;17.786;2023-03-11T11:07:51;118336.50;;;-144.97;35.78
42415;BME280;28058;46.344;17.786;2023-03-11T11:10:31;118336.50;;;-144.97;36.34
42415;BME280;28058;46.344;17.786;2023-03-11T11:17:48;118336.50;;;-144.97;34.58
42415;BME280;28058;46.344;17.786;2023-03-11T11:20:16;118336.50;;;-144.97;34.65
42415;BME280;28058;46.344;17.786;2023-03-11T11:22:49;118336.50;;;-144.97;34.54
42415;BME280;28058;46.344;17.786;2023-03-11T11:27:59;118336.50;;;-144.97;34.67
42415;BME280;28058;46.344;17.786;2023-03-11T11:30:26;118336.50;;;-144.97;34.79
42415;BME280;28058;46.344;17.786;2023-03-11T11:32:54;118336.50;;;-144.97;35.01
42415;BME280;28058;46.344;17.786;2023-03-11T11:35:22;118336.50;;;-144.97;34.61
42415;BME280;28058;46.344;17.786;2023-03-11T11:37:51;118336.50;;;-144.97;34.41
42415;BME280;28058;46.344;17.786;2023-03-11T11:40:26;118336.50;;;-144.97;33.39
42415;BME280;28058;46.344;17.786;2023-03-11T11:47:51;118336.50;;;-144.97;32.66
42415;BME280;28058;46.344;17.786;2023-03-11T11:50:27;118336.50;;;-144.97;33.62
42415;BME280;28058;46.344;17.786;2023-03-11T11:53:10;118336.50;;;-144.97;33.31
42415;BME280;28058;46.344;17.786;2023-03-11T11:55:42;118336.50;;;-144.97;34.65
42415;BME280;28058;46.344;17.786;2023-03-11T11:58:12;118336.50;;;-144.97;33.01
42415;BME280;28058;46.344;17.786;2023-03-11T12:00:42;118336.50;;;-144.97;32.83
42415;BME280;28058;46.344;17.786;2023-03-11T12:05:55;118336.50;;;-144.97;33.90
42415;BME280;28058;46.344;17.786;2023-03-11T12:18:39;118336.50;;;-144.97;33.99
42415;BME280;28058;46.344;17.786;2023-03-11T12:21:23;118336.50;;;-144.97;33.89
42415;BME280;28058;46.344;17.786;2023-03-11T12:26:27;118336.50;;;-144.97;34.47
42415;BME280;28058;46.344;17.786;2023-03-11T12:31:26;118336.50;;;-144.97;33.52
42415;BME280;28058;46.344;17.786;2023-03-11T12:34:01;118336.50;;;-144.97;33.66
42415;BME280;28058;46.344;17.786;2023-03-11T12:38:55;118336.50;;;-144.97;33.93
42415;BME280;28058;46.344;17.786;2023-03-11T12:41:26;118336.50;;;-144.97;33.95
42415;BME280;28058;46.344;17.786;2023-03-11T12:43:57;118336.50;;;-144.97;32.90
42415;BME280;28058;46.344;17.786;2023-03-11T12:46:57;118336.50;;;-144.97;33.95
42415;BME280;28058;46.344;17.786;2023-03-11T12:49:11;118336.50;;;-144.97;34.31
42415;BME280;28058;46.344;17.786;2023-03-11T12:51:39;118336.50;;;-144.97;34.49
42415;BME280;28058;46.344;17.786;2023-03-11T12:56:55;118336.50;;;-144.97;33.89
42415;BME280;28058;46.344;17.786;2023-03-11T13:04:36;118336.50;;;-144.97;34.87
42415;BME280;28058;46.344;17.786;2023-03-11T13:09:40;118336.50;;;-144.97;34.60
42415;BME280;28058;46.344;17.786;2023-03-11T13:17:38;118336.50;;;-144.97;35.47
42415;BME280;28058;46.344;17.786;2023-03-11T13:20:38;118336.50;;;-144.97;35.11
42415;BME280;28058;46.344;17.786;2023-03-11T13:27:51;118336.50;;;-144.97;33.39
42415;BME280;28058;46.344;17.786;2023-03-11T13:30:22;118336.50;;;-144.97;33.50
42415;BME280;28058;46.344;17.786;2023-03-11T13:35:37;118336.50;;;-144.97;34.79
42415;BME280;28058;46.344;17.786;2023-03-11T13:43:03;118336.50;;;-144.97;35.32
42415;BME280;28058;46.344;17.786;2023-03-11T13:45:31;118336.50;;;-144.97;34.99
42415;BME280;28058;46.344;17.786;2023-03-11T13:48:11;118336.50;;;-144.97;35.20
42415;BME280;28058;46.344;17.786;2023-03-11T13:50:44;118336.50;;;-144.97;35.14
42415;BME280;28058;46.344;17.786;2023-03-11T13:53:18;118336.50;;;-144.97;35.19